sensor_id;sensor_type;location;lat;lon;timestamp;P1;P2;P0
77320;PMS7003;66382;52.252;8.780;2023-04-20T00:01:40;5.25;5.25;4.00
77320;PMS7003;66382;52.252;8.780;2023-04-20T00:04:05;8.25;8.25;6.00
77320;PMS7003;66382;52.252;8.780;2023-04-20T00:06:31;11.00;11.00;9.00
77320;PMS7003;66382;52.252;8.780;2023-04-20T00:08:57;9.75;9.50;8.00
77320;PMS7003;66382;52.252;8.780;2023-04-20T00:11:23;9.50;9.50;7.50
77320;PMS7003;66382;52.252;8.780;2023-04-20T00:13:48;9.50;9.50;7.75
77320;PMS7003;66382;52.252;8.780;2023-04-20T00:16:14;7.75;7.75;5.50
77320;PMS7003;66382;52.252;8.780;2023-04-20T00:18:41;9.00;9.00;8.00
77320;PMS7003;66382;52.252;8.780;2023-04-20T00:21:10;9.00;9.00;7.00
77320;PMS7003;66382;52.252;8.780;2023-04-20T00:23:35;8.25;8.25;6.25
77320;PMS7003;66382;52.252;8.780;2023-04-20T00:26:01;9.00;9.00;7.00
77320;PMS7003;66382;52.252;8.780;2023-04-20T00:28:27;8.75;8.25;7.50
77320;PMS7003;66382;52.252;8.780;2023-04-20T00:30:52;9.75;9.75;8.50
77320;PMS7003;66382;52.252;8.780;2023-04-20T00:33:18;8.50;8.50;7.00
77320;PMS7003;66382;52.252;8.780;2023-04-20T00:35:45;12.25;12.00;8.00
77320;PMS7003;66382;52.252;8.780;2023-04-20T00:38:11;9.75;9.75;7.50
77320;PMS7003;66382;52.252;8.780;2023-04-20T00:40:37;9.00;9.00;8.00
77320;PMS7003;66382;52.252;8.780;2023-04-20T00:43:08;7.50;7.50;6.00
77320;PMS7003;66382;52.252;8.780;2023-04-20T00:45:34;7.75;7.75;7.00
77320;PMS7003;66382;52.252;8.780;2023-04-20T00:47:59;8.25;8.25;6.75
77320;PMS7003;66382;52.252;8.780;2023-04-20T00:50:25;8.25;8.25;6.00
77320;PMS7003;66382;52.252;8.780;2023-04-20T00:52:52;6.25;6.25;3.50
77320;PMS7003;66382;52.252;8.780;2023-04-20T00:55:18;7.00;7.00;6.25
77320;PMS7003;66382;52.252;8.780;2023-04-20T00:57:45;7.50;7.50;6.25
77320;PMS7003;66382;52.252;8.780;2023-04-20T01:00:11;8.00;8.00;7.00
77320;PMS7003;66382;52.252;8.780;2023-04-20T01:02:37;12.00;11.00;7.25
77320;PMS7003;66382;52.252;8.780;2023-04-20T01:05:03;8.00;8.00;7.25
77320;PMS7003;66382;52.252;8.780;2023-04-20T01:07:29;7.00;7.00;6.00
77320;PMS7003;66382;52.252;8.780;2023-04-20T01:09:56;7.75;7.75;6.75
77320;PMS7003;66382;52.252;8.780;2023-04-20T01:12:22;9.25;9.25;6.00
77320;PMS7003;66382;52.252;8.780;2023-04-20T01:14:48;10.50;10.50;7.25
77320;PMS7003;66382;52.252;8.780;2023-04-20T01:17:13;8.00;8.00;6.00
77320;PMS7003;66382;52.252;8.780;2023-04-20T01:19:39;6.75;6.75;5.00
77320;PMS7003;66382;52.252;8.780;2023-04-20T01:22:05;9.50;9.50;7.75
77320;PMS7003;66382;52.252;8.780;2023-04-20T01:24:32;8.00;8.00;6.00
77320;PMS7003;66382;52.252;8.780;2023-04-20T01:26:58;6.00;6.00;5.00
77320;PMS7003;66382;52.252;8.780;2023-04-20T01:29:24;6.25;6.25;6.00
77320;PMS7003;66382;52.252;8.780;2023-04-20T01:31:50;5.50;5.50;4.00
77320;PMS7003;66382;52.252;8.780;2023-04-20T01:34:15;8.00;8.00;6.50
77320;PMS7003;66382;52.252;8.780;2023-04-20T01:36:41;9.00;9.00;7.00
77320;PMS7003;66382;52.252;8.780;2023-04-20T01:39:07;11.50;10.50;7.00
77320;PMS7003;66382;52.252;8.780;2023-04-20T01:41:34;9.75;9.75;6.75
77320;PMS7003;66382;52.252;8.780;2023-04-20T01:44:00;8.50;8.50;6.00
77320;PMS7003;66382;52.252;8.780;2023-04-20T01:46:26;7.75;7.75;6.00
77320;PMS7003;66382;52.252;8.780;2023-04-20T01:48:51;5.50;5.50;4.75
77320;PMS7003;66382;52.252;8.780;2023-04-20T01:51:17;7.25;7.25;6.50
77320;PMS7003;66382;52.252;8.780;2023-04-20T01:53:43;8.00;8.00;7.00
77320;PMS7003;66382;52.252;8.780;2023-04-20T01:56:08;9.75;9.75;8.00
77320;PMS7003;66382;52.252;8.780;2023-04-20T01:58:36;7.00;7.00;5.50
77320;PMS7003;66382;52.252;8.780;2023-04-20T02:01:01;7.00;7.00;6.00
77320;PMS7003;66382;52.252;8.780;2023-04-20T02:03:27;7.00;7.00;6.00
77320;PMS7003;66382;52.252;8.780;2023-04-20T02:05:53;7.75;7.75;6.50
77320;PMS7003;66382;52.252;8.780;2023-04-20T02:08:18;9.25;9.25;7.00
77320;PMS7003;66382;52.252;8.780;2023-04-20T02:10:44;7.00;7.00;6.00
77320;PMS7003;66382;52.252;8.780;2023-04-20T02:13:10;6.25;6.25;5.00
77320;PMS7003;66382;52.252;8.780;2023-04-20T02:15:37;7.50;7.50;6.25
77320;PMS7003;66382;52.252;8.780;2023-04-20T02:18:03;7.00;7.00;5.50
77320;PMS7003;66382;52.252;8.780;2023-04-20T02:20:29;7.00;7.00;6.00
77320;PMS7003;66382;52.252;8.780;2023-04-20T02:22:54;7.25;7.25;6.00
77320;PMS7003;66382;52.252;8.780;2023-04-20T02:25:20;10.00;10.00;6.00
77320;PMS7003;66382;52.252;8.780;2023-04-20T02:27:46;7.50;7.50;6.00
77320;PMS7003;66382;52.252;8.780;2023-04-20T02:30:12;6.50;6.50;5.50
77320;PMS7003;66382;52.252;8.780;2023-04-20T02:32:39;7.00;6.50;6.00
77320;PMS7003;66382;52.252;8.780;2023-04-20T02:35:05;7.00;6.50;5.50
77320;PMS7003;66382;52.252;8.780;2023-04-20T02:37:31;7.00;7.00;6.25
77320;PMS7003;66382;52.252;8.780;2023-04-20T02:39:56;7.50;7.50;6.00
77320;PMS7003;66382;52.252;8.780;2023-04-20T02:42:22;10.25;10.25;6.75
77320;PMS7003;66382;52.252;8.780;2023-04-20T02:44:48;7.25;7.25;7.00
77320;PMS7003;66382;52.252;8.780;2023-04-20T02:47:13;6.25;6.25;5.00
77320;PMS7003;66382;52.252;8.780;2023-04-20T02:49:40;9.75;8.00;5.75
77320;PMS7003;66382;52.252;8.780;2023-04-20T02:52:06;7.00;7.00;6.25
77320;PMS7003;66382;52.252;8.780;2023-04-20T02:54:32;7.00;6.25;5.00
77320;PMS7003;66382;52.252;8.780;2023-04-20T02:56:58;9.50;9.50;6.25
77320;PMS7003;66382;52.252;8.780;2023-04-20T02:59:23;7.25;7.25;6.00
77320;PMS7003;66382;52.252;8.780;2023-04-20T03:01:49;6.00;6.00;5.25
77320;PMS7003;66382;52.252;8.780;2023-04-20T03:04:15;7.00;7.00;6.00
77320;PMS7003;66382;52.252;8.780;2023-04-20T03:06:42;9.00;9.00;6.00
77320;PMS7003;66382;52.252;8.780;2023-04-20T03:09:08;6.75;6.75;5.00
77320;PMS7003;66382;52.252;8.780;2023-04-20T03:11:33;8.00;8.00;6.50
77320;PMS7003;66382;52.252;8.780;2023-04-20T03:13:59;9.00;9.00;6.00
77320;PMS7003;66382;52.252;8.780;2023-04-20T03:16:25;9.00;9.00;6.00
77320;PMS7003;66382;52.252;8.780;2023-04-20T03:18:50;6.75;6.75;5.75
77320;PMS7003;66382;52.252;8.780;2023-04-20T03:21:16;7.00;7.00;6.25
77320;PMS7003;66382;52.252;8.780;2023-04-20T03:23:43;7.00;7.00;6.00
77320;PMS7003;66382;52.252;8.780;2023-04-20T03:26:09;8.50;8.50;6.00
77320;PMS7003;66382;52.252;8.780;2023-04-20T03:28:35;8.25;8.25;6.50
77320;PMS7003;66382;52.252;8.780;2023-04-20T03:31:00;6.75;6.75;5.25
77320;PMS7003;66382;52.252;8.780;2023-04-20T03:33:26;10.00;10.00;8.00
77320;PMS7003;66382;52.252;8.780;2023-04-20T03:35:52;5.75;5.75;5.50
77320;PMS7003;66382;52.252;8.780;2023-04-20T03:38:17;8.75;8.75;6.50
77320;PMS7003;66382;52.252;8.780;2023-04-20T03:40:45;6.25;6.25;5.75
77320;PMS7003;66382;52.252;8.780;2023-04-20T03:43:10;10.00;10.00;6.00
77320;PMS7003;66382;52.252;8.780;2023-04-20T03:45:36;9.25;9.25;6.00
77320;PMS7003;66382;52.252;8.780;2023-04-20T03:48:02;6.75;6.25;5.00
77320;PMS7003;66382;52.252;8.780;2023-04-20T03:50:28;8.50;8.50;6.00
77320;PMS7003;66382;52.252;8.780;2023-04-20T03:52:54;6.50;6.50;4.75
77320;PMS7003;66382;52.252;8.780;2023-04-20T03:55:19;7.50;7.50;5.75
77320;PMS7003;66382;52.252;8.780;2023-04-20T03:57:46;11.00;11.00;7.50
77320;PMS7003;66382;52.252;8.780;2023-04-20T04:00:12;10.00;10.00;7.75
77320;PMS7003;66382;52.252;8.780;2023-04-20T04:02:39;7.50;7.50;6.00
77320;PMS7003;66382;52.252;8.780;2023-04-20T04:05:05;11.50;11.50;9.00
77320;PMS7003;66382;52.252;8.780;2023-04-20T04:07:31;9.25;9.25;7.00
77320;PMS7003;66382;52.252;8.780;2023-04-20T04:09:57;7.00;7.00;5.50
77320;PMS7003;66382;52.252;8.780;2023-04-20T04:12:22;10.25;10.25;7.25
77320;PMS7003;66382;52.252;8.780;2023-04-20T04:14:49;10.50;10.50;8.75
77320;PMS7003;66382;52.252;8.780;2023-04-20T04:17:15;10.00;10.00;7.25
77320;PMS7003;66382;52.252;8.780;2023-04-20T04:19:41;12.00;12.00;9.25
77320;PMS7003;66382;52.252;8.780;2023-04-20T04:22:07;9.00;9.00;6.75
77320;PMS7003;66382;52.252;8.780;2023-04-20T04:24:32;13.00;13.00;9.00
77320;PMS7003;66382;52.252;8.780;2023-04-20T04:26:58;10.50;10.50;8.00
77320;PMS7003;66382;52.252;8.780;2023-04-20T04:29:24;10.75;10.75;7.50
77320;PMS7003;66382;52.252;8.780;2023-04-20T04:31:51;13.00;13.00;12.00
77320;PMS7003;66382;52.252;8.780;2023-04-20T04:34:16;10.50;10.50;7.25
77320;PMS7003;66382;52.252;8.780;2023-04-20T04:36:42;10.25;10.25;6.00
77320;PMS7003;66382;52.252;8.780;2023-04-20T04:39:08;10.75;10.75;9.00
77320;PMS7003;66382;52.252;8.780;2023-04-20T04:41:34;4.00;4.00;3.00
77320;PMS7003;66382;52.252;8.780;2023-04-20T04:43:59;9.50;9.50;6.75
77320;PMS7003;66382;52.252;8.780;2023-04-20T04:46:25;9.75;9.75;8.50
77320;PMS7003;66382;52.252;8.780;2023-04-20T04:48:52;8.50;8.50;5.75
77320;PMS7003;66382;52.252;8.780;2023-04-20T04:51:18;11.50;11.50;9.25
77320;PMS7003;66382;52.252;8.780;2023-04-20T04:53:44;11.25;11.25;9.25
77320;PMS7003;66382;52.252;8.780;2023-04-20T04:56:09;11.00;11.00;7.25
77320;PMS7003;66382;52.252;8.780;2023-04-20T04:58:35;12.00;12.00;7.50
77320;PMS7003;66382;52.252;8.780;2023-04-20T05:01:01;5.75;5.75;5.75
77320;PMS7003;66382;52.252;8.780;2023-04-20T05:03:27;9.50;9.50;8.00
77320;PMS7003;66382;52.252;8.780;2023-04-20T05:05:54;9.25;9.25;8.00
77320;PMS7003;66382;52.252;8.780;2023-04-20T05:08:19;11.25;11.25;9.00
77320;PMS7003;66382;52.252;8.780;2023-04-20T05:10:45;10.50;10.50;7.25
77320;PMS7003;66382;52.252;8.780;2023-04-20T05:13:11;9.50;9.50;9.00
77320;PMS7003;66382;52.252;8.780;2023-04-20T05:15:37;12.25;12.25;8.50
77320;PMS7003;66382;52.252;8.780;2023-04-20T05:18:02;10.50;10.50;9.25
77320;PMS7003;66382;52.252;8.780;2023-04-20T05:20:28;10.75;10.75;9.50
77320;PMS7003;66382;52.252;8.780;2023-04-20T05:22:55;10.75;10.75;9.25
77320;PMS7003;66382;52.252;8.780;2023-04-20T05:25:21;12.75;12.75;10.50
77320;PMS7003;66382;52.252;8.780;2023-04-20T05:27:47;12.50;12.50;10.00
77320;PMS7003;66382;52.252;8.780;2023-04-20T05:30:13;7.75;7.75;6.25
77320;PMS7003;66382;52.252;8.780;2023-04-20T05:32:38;10.25;10.25;7.00
77320;PMS7003;66382;52.252;8.780;2023-04-20T05:35:06;12.75;11.50;9.00
77320;PMS7003;66382;52.252;8.780;2023-04-20T05:37:32;11.00;11.00;9.00
77320;PMS7003;66382;52.252;8.780;2023-04-20T05:39:59;10.75;10.75;10.00
77320;PMS7003;66382;52.252;8.780;2023-04-20T05:42:25;12.25;12.25;9.25
77320;PMS7003;66382;52.252;8.780;2023-04-20T05:44:50;11.75;11.75;10.50
77320;PMS7003;66382;52.252;8.780;2023-04-20T05:47:16;9.50;9.50;8.75
77320;PMS7003;66382;52.252;8.780;2023-04-20T05:49:42;14.00;12.75;10.00
77320;PMS7003;66382;52.252;8.780;2023-04-20T05:52:08;12.00;11.00;7.75
77320;PMS7003;66382;52.252;8.780;2023-04-20T05:54:33;12.75;12.75;10.00
77320;PMS7003;66382;52.252;8.780;2023-04-20T05:57:00;12.50;12.50;11.00
77320;PMS7003;66382;52.252;8.780;2023-04-20T05:59:26;8.50;8.50;5.00
77320;PMS7003;66382;52.252;8.780;2023-04-20T06:01:52;12.25;12.25;9.50
77320;PMS7003;66382;52.252;8.780;2023-04-20T06:04:18;13.00;13.00;11.00
77320;PMS7003;66382;52.252;8.780;2023-04-20T06:06:43;12.00;12.00;9.50
77320;PMS7003;66382;52.252;8.780;2023-04-20T06:09:09;14.00;14.00;11.00
77320;PMS7003;66382;52.252;8.780;2023-04-20T06:11:35;12.75;12.00;9.00
77320;PMS7003;66382;52.252;8.780;2023-04-20T06:14:02;14.00;14.00;10.25
77320;PMS7003;66382;52.252;8.780;2023-04-20T06:16:27;11.25;11.25;9.00
77320;PMS7003;66382;52.252;8.780;2023-04-20T06:18:53;14.00;14.00;11.00
77320;PMS7003;66382;52.252;8.780;2023-04-20T06:21:19;12.75;12.75;8.75
77320;PMS7003;66382;52.252;8.780;2023-04-20T06:23:45;14.25;13.25;10.50
77320;PMS7003;66382;52.252;8.780;2023-04-20T06:26:11;12.50;12.50;11.00
77320;PMS7003;66382;52.252;8.780;2023-04-20T06:28:36;9.00;9.00;5.00
77320;PMS7003;66382;52.252;8.780;2023-04-20T06:31:04;11.00;11.00;8.50
77320;PMS7003;66382;52.252;8.780;2023-04-20T06:33:30;14.25;14.25;11.00
77320;PMS7003;66382;52.252;8.780;2023-04-20T06:35:56;14.75;14.75;12.50
77320;PMS7003;66382;52.252;8.780;2023-04-20T06:38:22;12.50;12.50;10.00
77320;PMS7003;66382;52.252;8.780;2023-04-20T06:40:48;11.50;11.50;10.25
77320;PMS7003;66382;52.252;8.780;2023-04-20T06:43:13;13.00;13.00;11.00
77320;PMS7003;66382;52.252;8.780;2023-04-20T06:45:39;15.00;15.00;10.75
77320;PMS7003;66382;52.252;8.780;2023-04-20T06:48:06;14.50;14.25;11.00
77320;PMS7003;66382;52.252;8.780;2023-04-20T06:50:32;11.25;11.25;8.00
77320;PMS7003;66382;52.252;8.780;2023-04-20T06:52:58;14.75;14.75;10.75
77320;PMS7003;66382;52.252;8.780;2023-04-20T06:55:24;10.25;10.25;6.50
77320;PMS7003;66382;52.252;8.780;2023-04-20T06:57:49;13.25;13.25;11.00
77320;PMS7003;66382;52.252;8.780;2023-04-20T07:00:15;13.75;13.75;10.00
77320;PMS7003;66382;52.252;8.780;2023-04-20T07:02:42;17.75;17.25;13.25
77320;PMS7003;66382;52.252;8.780;2023-04-20T07:05:11;14.50;14.50;11.00
77320;PMS7003;66382;52.252;8.780;2023-04-20T07:07:36;16.00;16.00;13.25
77320;PMS7003;66382;52.252;8.780;2023-04-20T07:10:02;17.00;17.00;12.00
77320;PMS7003;66382;52.252;8.780;2023-04-20T07:12:29;15.00;15.00;11.75
77320;PMS7003;66382;52.252;8.780;2023-04-20T07:14:54;15.25;15.25;11.75
77320;PMS7003;66382;52.252;8.780;2023-04-20T07:17:20;12.25;12.25;9.75
77320;PMS7003;66382;52.252;8.780;2023-04-20T07:19:46;17.00;17.00;11.00
77320;PMS7003;66382;52.252;8.780;2023-04-20T07:22:13;16.25;16.25;12.00
77320;PMS7003;66382;52.252;8.780;2023-04-20T07:24:39;16.00;16.00;11.75
77320;PMS7003;66382;52.252;8.780;2023-04-20T07:27:05;17.00;17.00;12.00
77320;PMS7003;66382;52.252;8.780;2023-04-20T07:29:30;15.25;14.50;8.75
77320;PMS7003;66382;52.252;8.780;2023-04-20T07:31:56;17.25;17.25;12.50
77320;PMS7003;66382;52.252;8.780;2023-04-20T07:34:22;18.50;18.50;12.00
77320;PMS7003;66382;52.252;8.780;2023-04-20T07:36:47;17.50;17.50;14.75
77320;PMS7003;66382;52.252;8.780;2023-04-20T07:39:14;17.50;17.50;12.50
77320;PMS7003;66382;52.252;8.780;2023-04-20T07:41:40;17.00;17.00;14.00
77320;PMS7003;66382;52.252;8.780;2023-04-20T07:44:06;20.25;20.25;13.75
77320;PMS7003;66382;52.252;8.780;2023-04-20T07:46:31;19.00;19.00;14.25
77320;PMS7003;66382;52.252;8.780;2023-04-20T07:48:57;20.00;19.00;14.00
77320;PMS7003;66382;52.252;8.780;2023-04-20T07:51:23;18.00;18.00;13.25
77320;PMS7003;66382;52.252;8.780;2023-04-20T07:53:49;18.75;18.75;13.75
77320;PMS7003;66382;52.252;8.780;2023-04-20T07:56:16;16.00;16.00;9.50
77320;PMS7003;66382;52.252;8.780;2023-04-20T07:58:42;18.25;18.25;14.00
77320;PMS7003;66382;52.252;8.780;2023-04-20T08:01:09;16.50;16.50;12.25
77320;PMS7003;66382;52.252;8.780;2023-04-20T08:03:35;14.50;14.50;12.25
77320;PMS7003;66382;52.252;8.780;2023-04-20T08:06:01;15.25;15.25;12.00
77320;PMS7003;66382;52.252;8.780;2023-04-20T08:08:26;17.25;17.25;13.25
77320;PMS7003;66382;52.252;8.780;2023-04-20T08:10:52;15.25;15.25;11.75
77320;PMS7003;66382;52.252;8.780;2023-04-20T08:13:22;14.50;14.50;12.00
77320;PMS7003;66382;52.252;8.780;2023-04-20T08:15:47;17.50;17.50;12.00
77320;PMS7003;66382;52.252;8.780;2023-04-20T08:18:13;17.00;17.00;13.50
77320;PMS7003;66382;52.252;8.780;2023-04-20T08:20:39;16.50;16.50;11.25
77320;PMS7003;66382;52.252;8.780;2023-04-20T08:23:05;16.00;16.00;11.50
77320;PMS7003;66382;52.252;8.780;2023-04-20T08:25:30;16.25;15.25;12.00
77320;PMS7003;66382;52.252;8.780;2023-04-20T08:27:56;12.00;12.00;9.75
77320;PMS7003;66382;52.252;8.780;2023-04-20T08:30:23;15.00;14.00;9.25
77320;PMS7003;66382;52.252;8.780;2023-04-20T08:32:49;13.25;13.25;11.00
77320;PMS7003;66382;52.252;8.780;2023-04-20T08:35:14;15.50;15.50;11.50
77320;PMS7003;66382;52.252;8.780;2023-04-20T08:37:40;13.00;13.00;9.00
77320;PMS7003;66382;52.252;8.780;2023-04-20T08:40:06;10.50;10.50;7.50
77320;PMS7003;66382;52.252;8.780;2023-04-20T08:42:33;16.25;14.00;11.00
77320;PMS7003;66382;52.252;8.780;2023-04-20T08:44:59;11.00;11.00;9.00
77320;PMS7003;66382;52.252;8.780;2023-04-20T08:47:27;13.00;13.00;10.50
77320;PMS7003;66382;52.252;8.780;2023-04-20T08:49:53;11.50;11.50;10.00
77320;PMS7003;66382;52.252;8.780;2023-04-20T08:52:19;10.25;10.25;9.25
77320;PMS7003;66382;52.252;8.780;2023-04-20T08:54:45;10.00;10.00;6.25
77320;PMS7003;66382;52.252;8.780;2023-04-20T08:57:11;12.25;12.25;11.00
77320;PMS7003;66382;52.252;8.780;2023-04-20T08:59:37;13.00;13.00;10.25
77320;PMS7003;66382;52.252;8.780;2023-04-20T09:02:09;12.25;12.25;10.00
77320;PMS7003;66382;52.252;8.780;2023-04-20T09:04:37;11.25;11.25;9.00
77320;PMS7003;66382;52.252;8.780;2023-04-20T09:07:03;12.25;11.00;8.50
77320;PMS7003;66382;52.252;8.780;2023-04-20T09:09:29;12.25;12.25;9.25
77320;PMS7003;66382;52.252;8.780;2023-04-20T09:11:59;9.00;9.00;5.25
77320;PMS7003;66382;52.252;8.780;2023-04-20T09:14:25;11.00;11.00;9.50
77320;PMS7003;66382;52.252;8.780;2023-04-20T09:16:52;12.00;12.00;10.00
77320;PMS7003;66382;52.252;8.780;2023-04-20T09:19:22;13.25;13.25;9.75
77320;PMS7003;66382;52.252;8.780;2023-04-20T09:21:49;8.75;8.75;6.00
77320;PMS7003;66382;52.252;8.780;2023-04-20T09:24:17;10.75;10.75;8.50
77320;PMS7003;66382;52.252;8.780;2023-04-20T09:26:44;12.75;12.75;10.00
77320;PMS7003;66382;52.252;8.780;2023-04-20T09:29:14;13.00;13.00;9.25
77320;PMS7003;66382;52.252;8.780;2023-04-20T09:31:41;12.25;12.00;8.75
77320;PMS7003;66382;52.252;8.780;2023-04-20T09:34:06;12.50;12.50;9.00
77320;PMS7003;66382;52.252;8.780;2023-04-20T09:36:35;12.25;12.25;10.50
77320;PMS7003;66382;52.252;8.780;2023-04-20T09:39:05;13.75;13.75;11.75
77320;PMS7003;66382;52.252;8.780;2023-04-20T09:41:33;20.00;20.00;13.00
77320;PMS7003;66382;52.252;8.780;2023-04-20T09:43:59;18.25;18.25;13.50
77320;PMS7003;66382;52.252;8.780;2023-04-20T09:46:27;16.75;16.75;13.50
77320;PMS7003;66382;52.252;8.780;2023-04-20T09:48:53;13.25;13.25;10.00
77320;PMS7003;66382;52.252;8.780;2023-04-20T09:51:20;15.00;15.00;12.00
77320;PMS7003;66382;52.252;8.780;2023-04-20T09:53:46;16.50;16.25;12.75
77320;PMS7003;66382;52.252;8.780;2023-04-20T09:56:15;14.75;14.75;12.25
77320;PMS7003;66382;52.252;8.780;2023-04-20T09:58:42;14.00;14.00;10.25
77320;PMS7003;66382;52.252;8.780;2023-04-20T10:01:10;17.00;17.00;12.25
77320;PMS7003;66382;52.252;8.780;2023-04-20T10:03:36;17.00;17.00;12.25
77320;PMS7003;66382;52.252;8.780;2023-04-20T10:06:02;17.75;17.75;15.00
77320;PMS7003;66382;52.252;8.780;2023-04-20T10:08:38;15.50;15.50;13.00
77320;PMS7003;66382;52.252;8.780;2023-04-20T10:11:04;20.00;20.00;15.25
77320;PMS7003;66382;52.252;8.780;2023-04-20T10:13:33;21.00;21.00;16.00
77320;PMS7003;66382;52.252;8.780;2023-04-20T10:15:58;22.00;22.00;15.00
77320;PMS7003;66382;52.252;8.780;2023-04-20T10:18:24;20.00;20.00;14.50
77320;PMS7003;66382;52.252;8.780;2023-04-20T10:20:50;13.00;13.00;11.25
77320;PMS7003;66382;52.252;8.780;2023-04-20T10:23:28;18.50;17.50;13.00
77320;PMS7003;66382;52.252;8.780;2023-04-20T10:25:54;18.00;18.00;15.50
77320;PMS7003;66382;52.252;8.780;2023-04-20T10:28:20;20.75;20.75;16.50
77320;PMS7003;66382;52.252;8.780;2023-04-20T10:30:51;18.25;18.25;14.00
77320;PMS7003;66382;52.252;8.780;2023-04-20T10:33:17;17.25;17.25;16.00
77320;PMS7003;66382;52.252;8.780;2023-04-20T10:35:45;20.00;20.00;16.25
77320;PMS7003;66382;52.252;8.780;2023-04-20T10:38:12;10.75;10.75;5.00
77320;PMS7003;66382;52.252;8.780;2023-04-20T10:40:39;18.50;18.50;14.75
77320;PMS7003;66382;52.252;8.780;2023-04-20T10:43:16;18.00;18.00;14.25
77320;PMS7003;66382;52.252;8.780;2023-04-20T10:45:42;20.25;20.25;15.00
77320;PMS7003;66382;52.252;8.780;2023-04-20T10:48:09;20.00;19.75;14.25
77320;PMS7003;66382;52.252;8.780;2023-04-20T10:50:36;18.00;18.00;13.50
77320;PMS7003;66382;52.252;8.780;2023-04-20T10:53:02;15.75;15.75;12.00
77320;PMS7003;66382;52.252;8.780;2023-04-20T10:55:29;14.00;14.00;12.75
77320;PMS7003;66382;52.252;8.780;2023-04-20T10:57:55;15.75;15.75;12.00
77320;PMS7003;66382;52.252;8.780;2023-04-20T11:00:22;17.00;17.00;12.25
77320;PMS7003;66382;52.252;8.780;2023-04-20T11:02:50;13.25;13.25;11.00
77320;PMS7003;66382;52.252;8.780;2023-04-20T11:05:19;20.50;20.50;14.25
77320;PMS7003;66382;52.252;8.780;2023-04-20T11:07:49;16.00;16.00;13.25
77320;PMS7003;66382;52.252;8.780;2023-04-20T11:10:15;16.50;16.50;13.50
77320;PMS7003;66382;52.252;8.780;2023-04-20T11:12:41;9.75;9.75;8.75
77320;PMS7003;66382;52.252;8.780;2023-04-20T11:15:07;17.50;17.50;14.25
77320;PMS7003;66382;52.252;8.780;2023-04-20T11:17:34;16.50;16.50;12.25
77320;PMS7003;66382;52.252;8.780;2023-04-20T11:20:05;16.00;16.00;14.00
77320;PMS7003;66382;52.252;8.780;2023-04-20T11:22:34;16.00;16.00;13.00
77320;PMS7003;66382;52.252;8.780;2023-04-20T11:25:01;18.00;18.00;13.00
77320;PMS7003;66382;52.252;8.780;2023-04-20T11:27:28;13.25;13.25;11.25
77320;PMS7003;66382;52.252;8.780;2023-04-20T11:29:56;15.75;15.75;12.50
77320;PMS7003;66382;52.252;8.780;2023-04-20T11:32:23;15.75;15.75;12.75
77320;PMS7003;66382;52.252;8.780;2023-04-20T11:34:56;13.00;13.00;12.00
77320;PMS7003;66382;52.252;8.780;2023-04-20T11:37:23;16.50;16.50;13.00
77320;PMS7003;66382;52.252;8.780;2023-04-20T11:39:58;15.75;15.75;12.00
77320;PMS7003;66382;52.252;8.780;2023-04-20T11:42:24;20.25;20.25;14.00
77320;PMS7003;66382;52.252;8.780;2023-04-20T11:44:50;19.00;19.00;14.00
77320;PMS7003;66382;52.252;8.780;2023-04-20T11:47:15;16.00;16.00;14.00
77320;PMS7003;66382;52.252;8.780;2023-04-20T11:49:41;19.75;19.75;13.75
77320;PMS7003;66382;52.252;8.780;2023-04-20T11:52:07;19.50;19.50;14.00
77320;PMS7003;66382;52.252;8.780;2023-04-20T11:54:32;21.75;21.75;15.75
77320;PMS7003;66382;52.252;8.780;2023-04-20T11:56:59;22.00;22.00;15.75
77320;PMS7003;66382;52.252;8.780;2023-04-20T11:59:25;20.00;20.00;16.00
77320;PMS7003;66382;52.252;8.780;2023-04-20T12:01:51;23.00;23.00;18.00
77320;PMS7003;66382;52.252;8.780;2023-04-20T12:04:17;19.50;19.50;13.25
77320;PMS7003;66382;52.252;8.780;2023-04-20T12:06:43;16.00;16.00;13.75
77320;PMS7003;66382;52.252;8.780;2023-04-20T12:09:09;20.50;20.50;14.25
77320;PMS7003;66382;52.252;8.780;2023-04-20T12:11:34;23.00;23.00;15.75
77320;PMS7003;66382;52.252;8.780;2023-04-20T12:14:01;21.00;21.00;17.50
77320;PMS7003;66382;52.252;8.780;2023-04-20T12:16:27;15.75;15.75;12.25
77320;PMS7003;66382;52.252;8.780;2023-04-20T12:18:53;17.25;17.25;14.00
77320;PMS7003;66382;52.252;8.780;2023-04-20T12:21:18;20.75;20.75;16.00
77320;PMS7003;66382;52.252;8.780;2023-04-20T12:23:44;16.00;16.00;14.00
77320;PMS7003;66382;52.252;8.780;2023-04-20T12:26:10;20.00;20.00;14.00
77320;PMS7003;66382;52.252;8.780;2023-04-20T12:28:36;19.75;19.75;16.75
77320;PMS7003;66382;52.252;8.780;2023-04-20T12:31:03;21.25;21.25;15.00
77320;PMS7003;66382;52.252;8.780;2023-04-20T12:33:29;18.00;18.00;13.00
77320;PMS7003;66382;52.252;8.780;2023-04-20T12:35:54;22.75;22.75;16.75
77320;PMS7003;66382;52.252;8.780;2023-04-20T12:38:20;20.75;20.75;16.50
77320;PMS7003;66382;52.252;8.780;2023-04-20T12:40:46;21.25;20.25;16.25
77320;PMS7003;66382;52.252;8.780;2023-04-20T12:43:11;17.75;17.75;14.50
77320;PMS7003;66382;52.252;8.780;2023-04-20T12:45:37;17.50;17.50;15.00
77320;PMS7003;66382;52.252;8.780;2023-04-20T12:48:04;19.50;19.50;14.50
77320;PMS7003;66382;52.252;8.780;2023-04-20T12:50:30;22.00;22.00;16.00
77320;PMS7003;66382;52.252;8.780;2023-04-20T12:52:56;18.75;18.75;15.00
77320;PMS7003;66382;52.252;8.780;2023-04-20T12:55:21;19.75;19.75;14.00
77320;PMS7003;66382;52.252;8.780;2023-04-20T12:57:47;17.50;17.50;14.00
77320;PMS7003;66382;52.252;8.780;2023-04-20T13:00:13;19.50;19.50;16.00
77320;PMS7003;66382;52.252;8.780;2023-04-20T13:02:39;18.25;18.25;15.50
77320;PMS7003;66382;52.252;8.780;2023-04-20T13:05:07;14.25;14.25;9.75
77320;PMS7003;66382;52.252;8.780;2023-04-20T13:07:33;13.75;13.75;11.50
77320;PMS7003;66382;52.252;8.780;2023-04-20T13:09:59;17.00;17.00;13.25
77320;PMS7003;66382;52.252;8.780;2023-04-20T13:12:25;17.00;16.00;12.00
77320;PMS7003;66382;52.252;8.780;2023-04-20T13:14:51;14.75;14.75;12.00
77320;PMS7003;66382;52.252;8.780;2023-04-20T13:20:40;16.25;16.25;12.25
77320;PMS7003;66382;52.252;8.780;2023-04-20T13:23:06;14.00;14.00;11.00
77320;PMS7003;66382;52.252;8.780;2023-04-20T13:25:32;16.00;16.00;12.50
77320;PMS7003;66382;52.252;8.780;2023-04-20T13:27:58;16.00;16.00;13.00
77320;PMS7003;66382;52.252;8.780;2023-04-20T13:30:25;9.50;9.50;8.00
77320;PMS7003;66382;52.252;8.780;2023-04-20T13:32:51;16.75;16.75;15.00
77320;PMS7003;66382;52.252;8.780;2023-04-20T13:35:17;16.00;16.00;13.00
77320;PMS7003;66382;52.252;8.780;2023-04-20T13:37:44;14.00;14.00;12.00
77320;PMS7003;66382;52.252;8.780;2023-04-20T13:40:10;17.00;17.00;14.00
77320;PMS7003;66382;52.252;8.780;2023-04-20T13:42:36;15.00;15.00;11.50
77320;PMS7003;66382;52.252;8.780;2023-04-20T13:45:02;15.25;15.25;11.50
77320;PMS7003;66382;52.252;8.780;2023-04-20T13:47:29;12.25;12.25;10.50
77320;PMS7003;66382;52.252;8.780;2023-04-20T13:49:54;12.00;12.00;8.25
77320;PMS7003;66382;52.252;8.780;2023-04-20T13:52:20;7.00;7.00;7.00
77320;PMS7003;66382;52.252;8.780;2023-04-20T13:54:47;13.75;13.75;11.00
77320;PMS7003;66382;52.252;8.780;2023-04-20T13:57:13;14.00;14.00;12.00